Time;durP1;ratioP1;P1;durP2;ratioP2;P2;SDS_P1;SDS_P2;PMS_P1;PMS_P2;Temp;Humidity;BMP_temperature;BMP_pressure;BME280_temperature;BME280_humidity;BME280_pressure;Samples;Min_cycle;Max_cycle;Signal;HPM_P1;HPM_P2
2023/03/16 00:02:19;;;;;;;4.53;2.63;;;;;;;19.90;43.05;101254.03;5055178;28;20049;-56
2023/03/16 00:04:46;;;;;;;5.70;3.28;;;;;;;19.91;42.95;101262.94;5055078;28;20483;-57
2023/03/16 00:07:14;;;;;;;6.10;3.22;;;;;;;19.90;42.88;101258.56;5055084;28;20045;-57
2023/03/16 00:09:41;;;;;;;7.05;3.47;;;;;;;19.90;42.95;101272.00;5055046;28;20056;-56
2023/03/16 00:12:16;;;;;;;4.97;3.00;;;;;;;19.90;42.84;101277.38;5054947;28;20056;-57
2023/03/16 00:14:45;;;;;;;5.63;2.90;;;;;;;19.89;42.74;101272.94;5055058;28;20045;-47
2023/03/16 00:17:18;;;;;;;5.28;2.92;;;;;;;19.89;42.79;101283.69;5053525;28;20414;-49
2023/03/16 00:19:53;;;;;;;5.95;2.35;;;;;;;19.87;42.75;101286.53;5054477;28;20506;-51
2023/03/16 00:22:23;;;;;;;5.50;2.97;;;;;;;19.88;42.81;101287.38;5054722;28;20049;-48
2023/03/16 00:24:51;;;;;;;5.18;2.88;;;;;;;19.87;42.89;101289.19;5054667;28;20056;-47
2023/03/16 00:27:21;;;;;;;5.15;3.15;;;;;;;19.87;42.68;101282.97;5054591;28;20048;-49
2023/03/16 00:29:54;;;;;;;8.23;3.15;;;;;;;19.87;42.89;101293.72;5053105;28;20041;-51
2023/03/16 00:32:26;;;;;;;5.75;3.13;;;;;;;19.85;42.73;101293.88;5053078;28;20056;-48
2023/03/16 00:34:54;;;;;;;4.70;3.42;;;;;;;19.85;42.67;101301.03;5054600;28;20399;-52
2023/03/16 00:37:23;;;;;;;3.75;2.60;;;;;;;19.84;42.77;101304.72;5053100;28;20053;-52
2023/03/16 00:39:54;;;;;;;4.15;2.88;;;;;;;19.85;42.82;101309.09;5054348;28;20049;-46
2023/03/16 00:42:26;;;;;;;6.10;3.40;;;;;;;19.83;42.80;101311.94;5054516;28;20060;-48
2023/03/16 00:44:57;;;;;;;5.03;2.80;;;;;;;19.83;42.63;101313.75;5054414;28;20044;-48
2023/03/16 00:47:31;;;;;;;5.17;3.33;;;;;;;19.83;42.81;101311.94;5054191;28;20053;-47
2023/03/16 00:50:03;;;;;;;4.65;2.85;;;;;;;19.82;42.60;101312.91;5052529;28;20060;-52
2023/03/16 00:52:36;;;;;;;4.80;2.90;;;;;;;19.82;42.90;101310.22;5053802;28;20060;-50
2023/03/16 00:55:04;;;;;;;4.13;2.60;;;;;;;19.82;42.74;101314.75;5054214;28;20064;-53
2023/03/16 00:57:31;;;;;;;4.53;2.88;;;;;;;19.81;42.56;101313.91;5052701;28;20487;-49
2023/03/16 01:00:01;;;;;;;3.75;2.40;;;;;;;19.80;42.69;101308.63;5053846;28;20052;-50
2023/03/16 01:02:28;;;;;;;4.53;3.08;;;;;;;19.80;42.82;101312.16;5054030;28;20045;-50
2023/03/16 01:04:55;;;;;;;6.78;3.05;;;;;;;19.80;42.81;101314.84;5053981;28;20048;-47
2023/03/16 01:07:24;;;;;;;5.20;2.75;;;;;;;19.80;42.63;101308.63;5054174;28;20053;-49
2023/03/16 01:09:52;;;;;;;3.38;2.42;;;;;;;19.79;42.77;101312.31;5053850;28;20049;-50
2023/03/16 01:12:19;;;;;;;5.00;2.90;;;;;;;19.78;42.81;101314.13;5053896;28;20487;-50
2023/03/16 01:14:47;;;;;;;4.70;3.10;;;;;;;19.78;42.75;101311.44;5054186;28;20057;-47
2023/03/16 01:17:16;;;;;;;5.85;2.97;;;;;;;19.78;42.92;101305.22;5052383;28;20411;-49
2023/03/16 01:19:45;;;;;;;5.45;2.70;;;;;;;19.78;42.68;101302.53;5053429;28;20048;-50
2023/03/16 01:22:14;;;;;;;3.47;2.65;;;;;;;19.76;42.74;101294.59;5053729;28;20049;-49
2023/03/16 01:24:44;;;;;;;4.13;2.85;;;;;;;19.76;42.68;101298.13;5053668;28;20064;-56
2023/03/16 01:27:12;;;;;;;6.10;2.30;;;;;;;19.75;42.63;101296.41;5053761;28;20052;-57
2023/03/16 01:29:42;;;;;;;5.95;2.53;;;;;;;19.75;42.60;101292.88;5052505;28;20045;-56
2023/03/16 01:32:10;;;;;;;9.13;3.28;;;;;;;19.75;42.84;101293.72;5053682;28;20052;-57
2023/03/16 01:34:38;;;;;;;5.95;3.13;;;;;;;19.74;42.82;101293.88;5051809;28;20487;-56
2023/03/16 01:37:06;;;;;;;5.50;2.42;;;;;;;19.73;42.94;101295.69;5051850;28;20044;-57
2023/03/16 01:39:48;;;;;;;5.53;3.05;;;;;;;19.73;42.75;101290.34;5052410;28;20495;-56
2023/03/16 01:42:16;;;;;;;4.68;2.58;;;;;;;19.73;42.92;101298.38;5051913;28;20053;-56
2023/03/16 01:44:49;;;;;;;5.43;2.65;;;;;;;19.72;42.79;101288.59;5052643;28;20387;-49
2023/03/16 01:47:17;;;;;;;3.88;2.92;;;;;;;19.71;42.67;101289.59;5052479;28;20049;-47
2023/03/16 01:49:47;;;;;;;4.55;2.95;;;;;;;19.71;42.80;101286.03;5052052;28;20049;-50
2023/03/16 01:52:20;;;;;;;4.88;2.78;;;;;;;19.70;42.88;101285.19;5053466;28;20045;-48
2023/03/16 01:54:50;;;;;;;;;;;;;;;19.71;42.85;101296.78;5052196;28;20487;-56
2023/03/16 01:57:20;;;;;;;3.90;2.38;;;;;;;19.70;42.73;101281.66;5053331;28;19920;-56
2023/03/16 02:00:17;;;;;;;3.47;2.30;;;;;;;19.69;42.88;101288.03;5051900;28;20068;-56
2023/03/16 02:03:04;;;;;;;6.38;2.80;;;;;;;19.68;42.79;101281.75;5051871;28;20068;-56
2023/03/16 02:05:58;;;;;;;4.70;2.45;;;;;;;19.68;42.57;101291.66;5052304;28;20048;-56
2023/03/16 02:08:26;;;;;;;3.15;2.35;;;;;;;19.68;42.84;101288.97;5052274;28;20059;-56
2023/03/16 02:10:55;;;;;;;5.53;2.60;;;;;;;19.66;42.77;101289.09;5051918;28;20061;-49
2023/03/16 02:13:35;;;;;;;4.50;2.88;;;;;;;19.66;42.77;101286.41;5054699;28;20513;-49
2023/03/16 02:16:07;;;;;;;4.05;2.58;;;;;;;19.66;42.66;101283.72;5055806;28;20053;-49
2023/03/16 02:18:35;;;;;;;4.15;2.75;;;;;;;19.66;42.75;101278.38;5055442;28;20049;-47
2023/03/16 02:21:08;;;;;;;3.53;2.30;;;;;;;19.66;42.68;101281.03;5055700;28;20057;-48
2023/03/16 02:23:36;;;;;;;;;;;;;;;19.65;42.82;101273.13;5055691;28;20048;-49
2023/03/16 02:26:14;;;;;;;3.80;2.67;;;;;;;19.64;42.73;101280.31;5055881;28;19921;-55
2023/03/16 02:29:03;;;;;;;5.25;2.80;;;;;;;19.64;42.69;101280.31;5055622;28;20057;-57
2023/03/16 02:31:31;;;;;;;3.70;2.35;;;;;;;19.64;42.94;101282.13;5056870;28;20471;-57
2023/03/16 02:34:00;;;;;;;4.25;2.38;;;;;;;19.64;42.67;101274.94;5055827;28;20056;-56
2023/03/16 02:36:28;;;;;;;3.22;2.00;;;;;;;19.63;42.78;101283.13;5055469;28;20053;-57
2023/03/16 02:38:56;;;;;;;5.05;2.40;;;;;;;19.63;42.79;101280.44;5055435;28;20414;-57
2023/03/16 02:41:24;;;;;;;4.30;2.42;;;;;;;19.62;42.91;101276.03;5056864;28;20376;-57
2023/03/16 02:44:16;;;;;;;3.58;2.10;;;;;;;19.63;43.06;101280.44;5055177;28;20049;-48
2023/03/16 02:46:45;;;;;;;4.30;2.70;;;;;;;19.62;42.83;101282.28;5055305;28;20475;-48
2023/03/16 02:49:29;;;;;;;4.03;2.30;;;;;;;19.61;42.39;101269.81;5056821;28;20056;-48
2023/03/16 02:51:56;;;;;;;3.80;2.53;;;;;;;19.61;42.70;101280.56;5055653;28;20057;-48
2023/03/16 02:54:23;;;;;;;3.70;2.35;;;;;;;19.60;42.57;101268.06;5056918;28;20064;-49
2023/03/16 02:56:51;;;;;;;3.30;2.33;;;;;;;19.61;42.53;101268.94;5055339;28;20053;-47
2023/03/16 02:59:20;;;;;;;3.78;2.20;;;;;;;19.60;42.84;101270.75;5055015;28;20041;-48
2023/03/16 03:01:48;;;;;;;3.45;2.38;;;;;;;19.59;42.72;101266.34;5056128;28;20052;-49
2023/03/16 03:04:16;;;;;;;4.22;2.22;;;;;;;19.59;42.94;101271.72;5055205;28;20052;-51
2023/03/16 03:06:44;;;;;;;3.13;2.30;;;;;;;19.59;42.80;101263.69;5055047;28;20053;-49
2023/03/16 03:09:11;;;;;;;3.97;2.58;;;;;;;19.60;43.12;101254.63;5055069;28;20044;-50
2023/03/16 03:11:40;;;;;;;4.30;2.10;;;;;;;19.61;42.71;101263.56;5056408;28;20365;-49
2023/03/16 03:14:07;;;;;;;3.53;2.38;;;;;;;19.60;42.59;101256.47;5056373;28;20045;-57
2023/03/16 03:16:37;;;;;;;4.22;2.33;;;;;;;19.59;42.85;101261.00;5055076;28;20512;-57
2023/03/16 03:19:04;;;;;;;4.60;2.35;;;;;;;19.59;42.68;101262.81;5054907;28;20048;-57
2023/03/16 03:21:35;;;;;;;3.85;2.58;;;;;;;19.59;42.59;101276.25;5054805;28;20048;-57
2023/03/16 03:24:04;;;;;;;4.30;2.40;;;;;;;19.58;42.55;101272.72;5054534;28;20410;-57
2023/03/16 03:26:33;;;;;;;4.78;2.50;;;;;;;19.57;42.64;101275.50;5055980;28;20483;-57
2023/03/16 03:29:03;;;;;;;3.75;2.42;;;;;;;19.56;42.66;101277.34;5038069;28;20056;-56
2023/03/16 03:31:33;;;;;;;4.00;2.45;;;;;;;19.56;42.44;101274.66;5054057;28;20060;-57
2023/03/16 03:34:05;;;;;;;3.92;2.47;;;;;;;19.56;42.30;101287.22;5054803;28;20419;-57
2023/03/16 03:36:34;;;;;;;3.13;2.08;;;;;;;19.54;42.69;101287.38;5053960;28;20053;-57
2023/03/16 03:39:03;;;;;;;4.18;2.22;;;;;;;19.55;42.55;101282.84;5053830;28;20060;-57
2023/03/16 03:41:33;;;;;;;4.10;2.22;;;;;;;19.54;42.58;101295.41;5054278;28;20060;-57
2023/03/16 03:44:03;;;;;;;5.00;2.72;;;;;;;19.54;42.45;101305.31;5037741;28;20522;-49
2023/03/16 03:46:32;;;;;;;3.78;2.40;;;;;;;19.54;42.58;101314.22;5054359;28;20052;-49
2023/03/16 03:49:02;;;;;;;4.97;2.70;;;;;;;19.54;42.44;101306.16;5054291;28;20064;-49
2023/03/16 03:51:32;;;;;;;3.17;2.10;;;;;;;19.51;42.57;101307.25;5053814;28;20045;-48
2023/03/16 03:54:12;;;;;;;3.90;1.90;;;;;;;19.52;42.40;101308.09;5053842;28;20170;-57
2023/03/16 03:56:51;;;;;;;4.82;2.60;;;;;;;19.52;42.47;101313.47;5054098;28;20049;-57
2023/03/16 03:59:19;;;;;;;5.95;2.50;;;;;;;19.50;42.51;101324.34;5053792;28;20053;-56
2023/03/16 04:02:16;;;;;;;4.53;2.55;;;;;;;19.50;42.48;101331.56;5053696;28;20057;-56
2023/03/16 04:04:50;;;;;;;3.53;1.88;;;;;;;19.51;42.56;101334.09;5055320;28;20064;-56
2023/03/16 04:07:17;;;;;;;4.93;2.42;;;;;;;19.50;42.48;101336.94;5053923;28;20404;-56
2023/03/16 04:09:45;;;;;;;4.25;2.10;;;;;;;19.50;42.33;101342.28;5053789;28;20052;-57
2023/03/16 04:12:30;;;;;;;3.30;2.10;;;;;;;19.49;42.20;101351.34;5053862;28;20053;-57
2023/03/16 04:14:58;;;;;;;6.55;2.10;;;;;;;19.48;42.43;101349.59;5055064;28;20041;-57
2023/03/16 04:17:30;;;;;;;3.77;2.20;;;;;;;19.49;42.73;101354.03;5053456;28;20064;-48
2023/03/16 04:19:59;;;;;;;3.72;2.38;;;;;;;19.48;42.41;101352.28;5053375;28;20049;-52
2023/03/16 04:22:29;;;;;;;4.53;2.28;;;;;;;19.47;42.47;101358.63;5052979;28;20053;-50
2023/03/16 04:24:56;;;;;;;3.58;2.17;;;;;;;19.47;42.64;101359.50;5052681;28;20053;-50
2023/03/16 04:27:26;;;;;;;4.72;2.15;;;;;;;19.47;42.75;101359.50;5053685;28;20487;-47
2023/03/16 04:29:57;;;;;;;4.25;2.15;;;;;;;19.49;42.93;101372.81;5054783;28;20041;-48
2023/03/16 04:32:25;;;;;;;5.85;2.60;;;;;;;19.47;43.01;101377.44;5053860;28;20072;-47
2023/03/16 04:34:55;;;;;;;4.18;2.15;;;;;;;19.46;42.92;101376.59;5053146;28;20053;-47
2023/03/16 04:37:33;;;;;;;4.47;2.33;;;;;;;19.47;43.01;101380.97;5053226;28;20045;-48
2023/03/16 04:40:09;;;;;;;5.32;2.25;;;;;;;19.46;43.13;101379.28;5052769;28;20048;-47
2023/03/16 04:42:37;;;;;;;3.10;2.08;;;;;;;19.47;42.94;101386.34;5053166;28;20110;-48
2023/03/16 04:45:07;;;;;;;3.28;1.83;;;;;;;19.46;42.87;101383.78;5052947;28;20064;-56
2023/03/16 04:47:36;;;;;;;4.75;2.17;;;;;;;19.46;42.20;101394.53;5054044;28;20372;-56
2023/03/16 04:50:04;;;;;;;5.47;2.35;;;;;;;19.46;42.67;101395.38;5054465;28;20049;-57
2023/03/16 04:52:33;;;;;;;6.25;2.35;;;;;;;19.46;42.60;101399.91;5052410;28;20553;-56
2023/03/16 04:55:01;;;;;;;5.60;2.35;;;;;;;19.45;42.82;101392.81;5052391;28;20052;-56
2023/03/16 04:57:29;;;;;;;3.75;1.98;;;;;;;19.44;42.89;101391.94;5052408;28;20060;-56
2023/03/16 04:59:56;;;;;;;3.38;2.05;;;;;;;19.44;42.79;101394.63;5054130;28;20049;-57
2023/03/16 05:02:32;;;;;;;5.05;2.30;;;;;;;19.44;42.51;101388.41;5053148;28;20104;-57
2023/03/16 05:05:02;;;;;;;4.05;2.30;;;;;;;19.44;42.61;101399.16;5052867;28;20396;-57
2023/03/16 05:07:31;;;;;;;4.60;2.85;;;;;;;19.44;42.41;101391.09;5052402;28;20403;-57
2023/03/16 05:09:58;;;;;;;3.78;2.30;;;;;;;19.43;42.40;101403.66;5052904;28;20064;-57
2023/03/16 05:12:26;;;;;;;5.70;2.75;;;;;;;19.42;42.59;101399.28;5052921;28;20045;-57
2023/03/16 05:14:58;;;;;;;;;;;;;;;19.42;42.47;101395.75;5037550;28;20476;-57
2023/03/16 05:17:46;;;;;;;5.00;2.47;;;;;;;19.41;42.69;101394.91;5053793;28;19921;-57
2023/03/16 05:20:14;;;;;;;3.33;2.22;;;;;;;19.41;42.68;101400.25;5052883;28;20056;-57
2023/03/16 05:22:48;;;;;;;5.50;2.58;;;;;;;19.40;42.53;101400.34;5051708;28;20116;-57
2023/03/16 05:25:28;;;;;;;3.80;2.22;;;;;;;19.39;42.47;101394.13;5051941;28;20067;-57
2023/03/16 05:27:58;;;;;;;5.03;2.47;;;;;;;19.40;42.24;101400.34;5052013;28;20053;-57
2023/03/16 05:30:48;;;;;;;5.25;2.38;;;;;;;19.37;42.51;101393.41;5051039;28;20399;-58
2023/03/16 05:33:21;;;;;;;3.20;2.03;;;;;;;19.39;42.25;101406.72;5052130;28;20060;-57
2023/03/16 05:35:52;;;;;;;4.95;2.30;;;;;;;19.37;42.47;101406.00;5052478;28;20664;-48
2023/03/16 05:38:20;;;;;;;5.95;2.80;;;;;;;19.38;42.31;101408.53;5052420;28;20430;-49
2023/03/16 05:40:51;;;;;;;3.30;2.05;;;;;;;19.36;42.05;101406.94;5051598;28;20411;-51
2023/03/16 05:43:35;;;;;;;4.57;2.35;;;;;;;19.34;42.16;101407.06;5052016;28;20106;-51
2023/03/16 05:46:03;;;;;;;6.93;2.20;;;;;;;19.35;42.28;101418.66;5052022;28;20049;-50
2023/03/16 05:48:31;;;;;;;5.68;2.63;;;;;;;19.35;41.99;101413.28;5051287;28;20060;-52
2023/03/16 05:51:00;;;;;;;5.53;2.38;;;;;;;19.35;41.99;101413.28;5051857;28;20052;-49
2023/03/16 05:53:29;;;;;;;3.65;2.30;;;;;;;19.33;42.16;101420.63;5051785;28;20053;-52
2023/03/16 05:56:04;;;;;;;6.53;2.63;;;;;;;19.33;41.96;101426.84;5051963;28;20053;-58
2023/03/16 05:58:34;;;;;;;4.05;2.10;;;;;;;19.32;41.89;101430.47;5051805;28;20064;-57
2023/03/16 06:01:08;;;;;;;5.32;2.45;;;;;;;19.32;42.12;101427.78;5051779;28;20056;-57
2023/03/16 06:03:35;;;;;;;4.18;2.28;;;;;;;19.32;42.21;101435.00;5053292;28;20052;-56
2023/03/16 06:06:04;;;;;;;3.53;2.22;;;;;;;19.32;42.19;101433.16;5052531;28;20063;-50
2023/03/16 06:08:38;;;;;;;3.92;2.38;;;;;;;19.31;41.87;101444.88;5052068;28;20480;-49
2023/03/16 06:11:10;;;;;;;3.65;2.10;;;;;;;19.31;42.01;101452.94;5051937;28;20064;-49
2023/03/16 06:13:38;;;;;;;3.85;2.05;;;;;;;19.30;42.01;101447.69;5051952;28;20053;-50
2023/03/16 06:16:10;;;;;;;3.30;2.03;;;;;;;19.29;41.91;101454.91;5052010;28;20071;-57
2023/03/16 06:18:38;;;;;;;5.43;2.17;;;;;;;19.30;41.90;101451.22;5051568;28;20044;-57
2023/03/16 06:21:05;;;;;;;5.75;2.78;;;;;;;19.30;41.88;101455.75;5051186;28;20056;-55
2023/03/16 06:23:34;;;;;;;4.30;2.38;;;;;;;19.30;41.48;101451.22;5052006;28;20053;-56
2023/03/16 06:26:03;;;;;;;6.22;2.80;;;;;;;19.29;41.66;101457.59;5053159;28;20045;-50
2023/03/16 06:28:32;;;;;;;3.72;2.38;;;;;;;19.30;41.48;101463.81;5051828;28;20057;-48
2023/03/16 06:30:59;;;;;;;4.85;2.70;;;;;;;19.31;41.61;101470.88;5053174;28;20049;-50
2023/03/16 06:33:31;;;;;;;4.40;2.33;;;;;;;19.30;41.46;101471.84;5051642;28;20109;-49
2023/03/16 06:35:58;;;;;;;7.68;2.47;;;;;;;19.30;41.46;101464.66;5051870;28;20053;-50
2023/03/16 06:38:32;;;;;;;6.57;2.63;;;;;;;19.30;41.43;101470.03;5051670;28;20053;-50
2023/03/16 06:41:06;;;;;;;5.75;2.25;;;;;;;19.30;41.59;101483.44;5051363;28;20052;-47
2023/03/16 06:43:35;;;;;;;4.82;2.55;;;;;;;19.30;41.41;101486.13;5051767;28;20049;-48
2023/03/16 06:46:02;;;;;;;4.20;2.25;;;;;;;19.30;41.25;101482.59;5052931;28;20049;-52
2023/03/16 06:48:30;;;;;;;4.85;2.40;;;;;;;19.30;41.43;101486.13;5053110;28;20053;-47
2023/03/16 06:50:57;;;;;;;5.47;2.72;;;;;;;19.30;41.26;101494.19;5051720;28;20048;-49
2023/03/16 06:53:27;;;;;;;3.25;1.80;;;;;;;19.30;41.38;101496.03;5050917;28;20053;-49
2023/03/16 06:55:55;;;;;;;4.03;2.08;;;;;;;19.30;41.33;101502.25;5051474;28;20499;-57
2023/03/16 06:58:25;;;;;;;3.35;2.17;;;;;;;19.30;41.08;101502.25;5053079;28;20056;-56
2023/03/16 07:00:52;;;;;;;5.60;2.45;;;;;;;19.30;41.37;101501.38;5055265;28;20057;-56
2023/03/16 07:03:20;;;;;;;3.63;1.92;;;;;;;19.31;41.01;101511.16;5055264;28;20065;-57
2023/03/16 07:05:54;;;;;;;3.55;2.10;;;;;;;19.29;41.38;101508.59;5055351;28;20053;-56
2023/03/16 07:08:22;;;;;;;4.70;2.30;;;;;;;19.29;41.17;101511.28;5056039;28;20479;-55
2023/03/16 07:10:50;;;;;;;5.07;2.20;;;;;;;19.30;41.08;101520.19;5054802;28;20048;-56
2023/03/16 07:13:18;;;;;;;3.83;2.15;;;;;;;19.29;41.16;101527.38;5055333;28;20057;-56
2023/03/16 07:15:51;;;;;;;4.07;2.15;;;;;;;19.29;41.02;101518.47;5056268;28;20055;-56
2023/03/16 07:18:19;;;;;;;5.10;2.03;;;;;;;19.29;40.83;101529.22;5054628;28;20049;-56
2023/03/16 07:20:47;;;;;;;4.05;2.33;;;;;;;19.29;41.01;101532.75;5055341;28;20103;-56
2023/03/16 07:23:14;;;;;;;3.88;2.17;;;;;;;19.29;40.69;101538.13;5054714;28;20060;-56
2023/03/16 07:25:43;;;;;;;5.10;2.10;;;;;;;19.30;40.63;101541.66;5054714;28;20053;-56
2023/03/16 07:28:11;;;;;;;5.05;2.00;;;;;;;19.30;40.81;101552.41;5054427;28;20415;-57
2023/03/16 07:30:41;;;;;;;4.13;1.98;;;;;;;19.29;40.61;101553.38;5054630;28;20052;-56
2023/03/16 07:33:34;;;;;;;4.07;2.08;;;;;;;19.29;40.56;101556.91;5055039;28;20053;-57
2023/03/16 07:36:04;;;;;;;4.15;2.05;;;;;;;19.29;40.64;101554.22;5054987;28;20060;-57
2023/03/16 07:38:36;;;;;;;5.63;2.00;;;;;;;19.30;40.54;101557.75;5054606;28;20053;-56
2023/03/16 07:41:04;;;;;;;2.97;1.95;;;;;;;19.30;40.71;101555.09;5054008;28;20490;-56
2023/03/16 07:43:33;;;;;;;4.18;2.83;;;;;;;19.29;40.61;101561.44;5054595;28;20053;-56
2023/03/16 07:46:01;;;;;;;4.00;3.05;;;;;;;19.30;40.56;101565.81;5055788;28;20403;-47
2023/03/16 07:48:29;;;;;;;4.85;2.97;;;;;;;19.29;40.71;101566.81;5056006;28;20056;-48
2023/03/16 07:51:00;;;;;;;3.88;2.83;;;;;;;19.29;40.66;101569.47;5054332;28;20391;-47
2023/03/16 07:53:29;;;;;;;4.10;2.60;;;;;;;19.28;40.73;101576.66;5054249;28;20049;-49
2023/03/16 07:56:24;;;;;;;4.63;2.70;;;;;;;19.29;40.76;101586.44;5054673;28;20511;-56
2023/03/16 07:58:55;;;;;;;4.03;2.47;;;;;;;19.28;40.73;101579.34;5054171;28;20052;-55
2023/03/16 08:01:23;;;;;;;4.50;2.92;;;;;;;19.29;40.65;101585.59;5055259;28;20396;-57
2023/03/16 08:03:50;;;;;;;6.05;2.42;;;;;;;19.29;40.76;101580.22;5054018;28;20403;-50
2023/03/16 08:06:18;;;;;;;4.85;3.53;;;;;;;19.29;41.24;101580.22;5057248;28;20045;-57
2023/03/16 08:08:46;;;;;;;5.32;2.72;;;;;;;19.30;40.85;101582.78;5057378;28;20052;-56
2023/03/16 08:11:24;;;;;;;3.85;2.50;;;;;;;19.32;40.80;101580.81;5073524;28;20510;-55
2023/03/16 08:13:58;;;;;;;4.93;2.65;;;;;;;19.35;40.92;101590.50;5074178;28;20067;-49
2023/03/16 08:16:38;;;;;;;3.50;2.13;;;;;;;19.37;41.12;101588.56;5073748;28;20048;-51
2023/03/16 08:19:06;;;;;;;6.25;2.38;;;;;;;19.38;41.35;101593.81;5074111;28;20079;-47
2023/03/16 08:21:35;;;;;;;9.57;3.58;;;;;;;19.40;41.87;101594.53;5074139;28;20490;-48
2023/03/16 08:24:22;;;;;;;5.95;2.60;;;;;;;19.43;41.45;101601.53;5074907;28;20049;-51
2023/03/16 08:26:49;;;;;;;6.60;2.30;;;;;;;19.44;41.86;101609.44;5074082;28;20059;-51
2023/03/16 08:29:17;;;;;;;6.90;2.75;;;;;;;19.45;41.57;101603.13;5073581;28;20056;-49
2023/03/16 08:31:45;;;;;;;5.70;2.42;;;;;;;19.45;41.33;101603.13;5073872;28;20048;-47
2023/03/16 08:34:22;;;;;;;8.73;2.67;;;;;;;19.46;41.29;101609.34;5073078;28;20060;-48
2023/03/16 08:36:49;;;;;;;11.43;2.35;;;;;;;19.45;41.27;101607.66;5074530;28;20051;-49
2023/03/16 08:39:17;;;;;;;9.43;2.67;;;;;;;19.45;40.12;101600.44;5074685;28;20060;-50
2023/03/16 08:41:47;;;;;;;10.27;2.45;;;;;;;19.47;41.21;101603.00;5073110;28;20063;-51
2023/03/16 08:44:37;;;;;;;4.70;2.20;;;;;;;19.48;39.71;101612.78;5073933;28;20060;-58
2023/03/16 08:47:04;;;;;;;4.38;2.13;;;;;;;19.48;40.54;101608.25;5072358;28;20068;-52
2023/03/16 08:49:33;;;;;;;4.32;2.45;;;;;;;19.50;41.11;101613.53;5072044;28;20493;-52
2023/03/16 08:52:11;;;;;;;5.50;2.20;;;;;;;19.51;40.56;101617.91;5070556;28;20053;-54
2023/03/16 08:54:40;;;;;;;4.13;1.67;;;;;;;19.50;40.47;101617.06;5073934;28;20044;-56
2023/03/16 08:57:22;;;;;;;5.70;2.00;;;;;;;19.51;40.66;101612.56;5072848;28;20060;-54
2023/03/16 08:59:50;;;;;;;7.15;1.77;;;;;;;19.52;40.34;101608.88;5074029;28;20048;-51
2023/03/16 09:02:17;;;;;;;4.57;2.00;;;;;;;19.54;40.32;101616.84;5073877;28;20044;-56
2023/03/16 09:04:44;;;;;;;4.85;1.77;;;;;;;19.54;40.68;101625.75;5072349;28;20048;-56
2023/03/16 09:07:12;;;;;;;3.97;1.73;;;;;;;19.54;40.29;101620.38;5064556;28;20569;-54
2023/03/16 09:09:39;;;;;;;4.53;1.60;;;;;;;19.55;40.35;101621.25;5068384;28;20040;-57
2023/03/16 09:12:07;;;;;;;5.53;1.55;;;;;;;19.55;40.59;101619.41;5053230;28;20071;-51
2023/03/16 09:14:37;;;;;;;3.45;1.67;;;;;;;19.56;39.89;101620.25;5070906;28;20060;-51
2023/03/16 09:17:10;;;;;;;2.88;1.42;;;;;;;19.56;39.04;101617.56;5053612;28;20538;-52
2023/03/16 09:19:38;;;;;;;5.10;1.30;;;;;;;19.57;40.46;101616.59;5053805;28;20049;-56
2023/03/16 09:22:25;;;;;;;5.15;1.70;;;;;;;19.57;39.04;101619.28;5062419;28;20044;-56
2023/03/16 09:24:52;;;;;;;3.67;1.23;;;;;;;19.56;38.25;101621.13;5065089;28;20055;-50
2023/03/16 09:27:19;;;;;;;3.75;1.35;;;;;;;19.57;37.66;101625.53;5073459;28;20048;-48
2023/03/16 09:29:48;;;;;;;3.25;1.35;;;;;;;19.58;37.69;101624.56;5072994;28;20494;-51
2023/03/16 09:32:15;;;;;;;3.17;1.73;;;;;;;19.57;37.30;101621.97;5073309;28;20051;-48
2023/03/16 09:34:43;;;;;;;2.25;0.93;;;;;;;19.57;37.35;101622.84;5071679;28;20048;-58
2023/03/16 09:37:11;;;;;;;3.55;1.50;;;;;;;19.58;37.21;101632.63;5072816;28;20053;-56
2023/03/16 09:39:38;;;;;;;2.42;1.17;;;;;;;19.58;36.79;101629.94;5072458;28;20052;-57
2023/03/16 09:42:16;;;;;;;2.75;1.10;;;;;;;19.57;35.85;101630.91;5073171;28;20425;-52
2023/03/16 09:45:02;;;;;;;4.45;1.10;;;;;;;19.58;35.24;101646.03;5072957;28;20051;-53
2023/03/16 09:47:33;;;;;;;4.32;1.05;;;;;;;19.58;34.71;101632.63;5072750;28;20044;-48
2023/03/16 09:50:05;;;;;;;4.32;1.00;;;;;;;19.58;34.51;101638.00;5072788;28;20475;-53
2023/03/16 09:52:57;;;;;;;1.73;0.80;;;;;;;19.57;34.15;101638.97;5073009;28;20048;-49
2023/03/16 09:55:33;;;;;;;2.22;0.77;;;;;;;19.57;34.05;101641.66;5073017;28;20044;-49
2023/03/16 09:58:05;;;;;;;1.33;0.73;;;;;;;19.58;33.97;101642.50;5072578;28;20048;-58
2023/03/16 10:00:44;;;;;;;2.03;0.90;;;;;;;19.59;35.46;101644.22;5073031;28;20379;-52
2023/03/16 10:03:27;;;;;;;2.20;0.77;;;;;;;19.59;37.65;101647.75;5072743;28;20045;-57
2023/03/16 10:06:02;;;;;;;4.05;0.98;;;;;;;19.60;37.62;101644.09;5072588;28;20052;-50
2023/03/16 10:08:38;;;;;;;5.35;1.23;;;;;;;19.61;37.74;101643.16;5072280;28;20375;-55
2023/03/16 10:11:30;;;;;;;5.55;0.93;;;;;;;19.63;38.34;101643.91;5072777;28;20053;-59
2023/03/16 10:14:20;;;;;;;2.93;1.30;;;;;;;19.64;38.93;101642.91;5072603;28;20051;-58
2023/03/16 10:16:56;;;;;;;3.35;1.02;;;;;;;19.66;38.84;101648.19;5061735;28;20775;-54
2023/03/16 10:19:46;;;;;;;4.78;1.08;;;;;;;19.66;38.70;101651.75;5069132;28;20410;-51
2023/03/16 10:22:26;;;;;;;4.13;1.15;;;;;;;19.66;38.79;101646.38;5071843;28;20051;-58
2023/03/16 10:25:10;;;;;;;2.33;0.80;;;;;;;19.66;39.03;101642.81;5072680;28;20064;-51
2023/03/16 10:27:42;;;;;;;7.63;1.00;;;;;;;19.65;38.99;101646.50;5072654;28;20064;-52
2023/03/16 10:30:20;;;;;;;7.68;1.10;;;;;;;19.66;38.99;101650.88;5072872;28;20047;-58
2023/03/16 10:32:48;;;;;;;3.53;1.10;;;;;;;19.66;38.87;101642.81;5072359;28;20056;-57
2023/03/16 10:35:37;;;;;;;2.47;0.95;;;;;;;19.66;38.38;101651.75;5075909;28;20402;-49
2023/03/16 10:38:07;;;;;;;5.70;0.90;;;;;;;19.66;38.86;101646.38;5076029;28;20071;-51
2023/03/16 10:40:38;;;;;;;4.78;0.93;;;;;;;19.66;38.81;101649.06;5076604;28;20051;-50
2023/03/16 10:43:11;;;;;;;3.92;1.13;;;;;;;19.66;38.97;101646.38;5076217;28;20569;-48
2023/03/16 10:45:42;;;;;;;2.97;0.70;;;;;;;19.68;38.76;101646.25;5076172;28;20052;-54
2023/03/16 10:48:15;;;;;;;2.42;1.15;;;;;;;19.67;38.65;101642.69;5076593;28;20044;-58
2023/03/16 10:50:43;;;;;;;;;;;;;;;19.67;38.59;101648.06;5076303;28;20048;-57
2023/03/16 10:53:20;;;;;;;3.92;0.98;;;;;;;19.68;38.67;101648.94;5075762;28;20290;-58
2023/03/16 10:55:49;;;;;;;2.05;0.70;;;;;;;19.68;38.86;101644.41;5076384;28;20059;-55
2023/03/16 10:58:28;;;;;;;3.85;1.10;;;;;;;19.67;38.92;101650.75;5075974;28;20415;-52
2023/03/16 11:00:57;;;;;;;1.73;0.73;;;;;;;19.67;38.80;101640.00;5075664;28;20051;-54
2023/03/16 11:03:28;;;;;;;3.20;1.20;;;;;;;19.68;38.81;101647.09;5075413;28;20040;-50
2023/03/16 11:05:58;;;;;;;3.50;1.10;;;;;;;19.68;38.47;101641.72;5075857;28;20498;-50
2023/03/16 11:08:30;;;;;;;2.92;0.80;;;;;;;19.68;38.36;101638.19;5075659;28;20518;-47
2023/03/16 11:11:01;;;;;;;4.47;0.77;;;;;;;19.68;38.35;101646.25;5075952;28;20048;-49
2023/03/16 11:13:34;;;;;;;1.02;0.40;;;;;;;19.67;38.53;101650.75;5075487;28;20055;-47
2023/03/16 11:16:16;;;;;;;4.03;0.75;;;;;;;19.67;38.46;101641.84;5075905;28;20056;-48
2023/03/16 11:18:48;;;;;;;1.98;0.55;;;;;;;19.67;38.38;101641.84;5056383;28;20041;-59
2023/03/16 11:21:25;;;;;;;2.90;0.80;;;;;;;19.67;38.37;101642.69;5055900;28;20044;-59
2023/03/16 11:23:57;;;;;;;3.75;0.88;;;;;;;19.66;38.50;101649.06;5055261;28;20045;-49
2023/03/16 11:26:34;;;;;;;3.05;0.88;;;;;;;19.67;38.52;101650.75;5055384;28;20045;-48
2023/03/16 11:29:13;;;;;;;3.25;0.70;;;;;;;19.68;38.47;101640.88;5055669;28;20387;-50
2023/03/16 11:31:48;;;;;;;3.00;0.80;;;;;;;19.66;38.48;101635.63;5055212;28;20041;-51
2023/03/16 11:34:18;;;;;;;2.95;0.80;;;;;;;19.67;38.42;101633.78;5055274;28;20044;-49
2023/03/16 11:36:52;;;;;;;3.33;0.80;;;;;;;19.66;38.21;101632.94;5055554;28;20491;-50
2023/03/16 11:39:19;;;;;;;5.05;0.80;;;;;;;19.65;34.66;101635.75;5055081;28;20049;-53
2023/03/16 11:42:06;;;;;;;3.60;0.80;;;;;;;19.60;35.66;101625.28;5071823;28;20044;-54
2023/03/16 11:44:41;;;;;;;2.88;1.00;;;;;;;19.57;40.43;101628.22;5074037;28;20059;-59
2023/03/16 11:47:31;;;;;;;1.95;0.75;;;;;;;19.54;43.43;101627.59;5075522;28;20048;-57
2023/03/16 11:50:32;;;;;;;2.15;0.75;;;;;;;19.50;45.33;101626.94;5074805;28;20056;-56